sensor_id;sensor_type;location;lat;lon;timestamp;P1;durP1;ratioP1;P2;durP2;ratioP2
37641;SDS011;23486;51.956;5.888;2023-07-09T00:02:22;10.30;;;7.53;;
37641;SDS011;23486;51.956;5.888;2023-07-09T00:04:49;9.48;;;7.15;;
37641;SDS011;23486;51.956;5.888;2023-07-09T00:07:18;10.95;;;7.25;;
37641;SDS011;23486;51.956;5.888;2023-07-09T00:09:53;9.23;;;7.40;;
37641;SDS011;23486;51.956;5.888;2023-07-09T00:12:19;10.85;;;8.10;;
37641;SDS011;23486;51.956;5.888;2023-07-09T00:14:45;9.38;;;7.03;;
37641;SDS011;23486;51.956;5.888;2023-07-09T00:17:11;11.70;;;8.55;;
37641;SDS011;23486;51.956;5.888;2023-07-09T00:19:44;9.65;;;7.85;;
37641;SDS011;23486;51.956;5.888;2023-07-09T00:22:17;12.40;;;8.38;;
37641;SDS011;23486;51.956;5.888;2023-07-09T00:24:47;12.75;;;8.30;;
37641;SDS011;23486;51.956;5.888;2023-07-09T00:27:16;12.82;;;8.15;;
37641;SDS011;23486;51.956;5.888;2023-07-09T00:29:43;9.48;;;7.28;;
37641;SDS011;23486;51.956;5.888;2023-07-09T00:32:18;9.57;;;7.28;;
37641;SDS011;23486;51.956;5.888;2023-07-09T00:34:50;9.93;;;7.35;;
37641;SDS011;23486;51.956;5.888;2023-07-09T00:37:17;13.27;;;8.10;;
37641;SDS011;23486;51.956;5.888;2023-07-09T00:39:44;10.02;;;7.10;;
37641;SDS011;23486;51.956;5.888;2023-07-09T00:42:19;10.45;;;7.97;;
37641;SDS011;23486;51.956;5.888;2023-07-09T00:44:53;9.10;;;6.75;;
37641;SDS011;23486;51.956;5.888;2023-07-09T00:47:23;11.25;;;7.28;;
37641;SDS011;23486;51.956;5.888;2023-07-09T00:50:29;9.48;;;6.97;;
37641;SDS011;23486;51.956;5.888;2023-07-09T00:53:01;11.70;;;7.50;;
37641;SDS011;23486;51.956;5.888;2023-07-09T00:55:36;9.52;;;7.13;;
37641;SDS011;23486;51.956;5.888;2023-07-09T00:58:09;8.63;;;6.25;;
37641;SDS011;23486;51.956;5.888;2023-07-09T01:00:42;10.02;;;7.03;;
37641;SDS011;23486;51.956;5.888;2023-07-09T01:06:10;11.43;;;7.00;;
37641;SDS011;23486;51.956;5.888;2023-07-09T01:08:38;9.30;;;7.38;;
37641;SDS011;23486;51.956;5.888;2023-07-09T01:11:17;10.25;;;7.38;;
37641;SDS011;23486;51.956;5.888;2023-07-09T01:13:49;9.27;;;6.32;;
37641;SDS011;23486;51.956;5.888;2023-07-09T01:16:20;10.25;;;6.60;;
37641;SDS011;23486;51.956;5.888;2023-07-09T01:18:51;14.52;;;6.95;;
37641;SDS011;23486;51.956;5.888;2023-07-09T01:21:17;9.20;;;7.07;;
37641;SDS011;23486;51.956;5.888;2023-07-09T01:23:43;9.55;;;6.95;;
37641;SDS011;23486;51.956;5.888;2023-07-09T01:26:11;12.25;;;7.13;;
37641;SDS011;23486;51.956;5.888;2023-07-09T01:28:38;10.40;;;7.10;;
37641;SDS011;23486;51.956;5.888;2023-07-09T01:31:07;11.32;;;7.65;;
37641;SDS011;23486;51.956;5.888;2023-07-09T01:33:33;13.05;;;7.60;;
37641;SDS011;23486;51.956;5.888;2023-07-09T01:35:58;10.15;;;7.78;;
37641;SDS011;23486;51.956;5.888;2023-07-09T01:38:28;9.98;;;7.28;;
37641;SDS011;23486;51.956;5.888;2023-07-09T01:40:56;10.73;;;7.53;;
37641;SDS011;23486;51.956;5.888;2023-07-09T01:43:22;9.88;;;7.60;;
37641;SDS011;23486;51.956;5.888;2023-07-09T01:45:50;11.02;;;7.13;;
37641;SDS011;23486;51.956;5.888;2023-07-09T01:48:16;11.00;;;7.47;;
37641;SDS011;23486;51.956;5.888;2023-07-09T01:50:43;9.57;;;6.40;;
37641;SDS011;23486;51.956;5.888;2023-07-09T01:53:12;8.85;;;6.63;;
37641;SDS011;23486;51.956;5.888;2023-07-09T01:55:39;10.00;;;6.32;;
37641;SDS011;23486;51.956;5.888;2023-07-09T01:58:05;11.13;;;7.13;;
37641;SDS011;23486;51.956;5.888;2023-07-09T02:00:32;7.95;;;6.35;;
37641;SDS011;23486;51.956;5.888;2023-07-09T02:03:02;10.70;;;7.03;;
37641;SDS011;23486;51.956;5.888;2023-07-09T02:05:31;11.43;;;7.53;;
37641;SDS011;23486;51.956;5.888;2023-07-09T02:07:58;8.63;;;7.22;;
37641;SDS011;23486;51.956;5.888;2023-07-09T02:10:25;10.27;;;7.78;;
37641;SDS011;23486;51.956;5.888;2023-07-09T02:12:51;9.88;;;7.10;;
37641;SDS011;23486;51.956;5.888;2023-07-09T02:15:17;9.35;;;6.32;;
37641;SDS011;23486;51.956;5.888;2023-07-09T02:17:42;12.10;;;6.78;;
37641;SDS011;23486;51.956;5.888;2023-07-09T02:20:14;9.75;;;6.97;;
37641;SDS011;23486;51.956;5.888;2023-07-09T02:22:40;8.55;;;6.10;;
37641;SDS011;23486;51.956;5.888;2023-07-09T02:25:07;13.65;;;7.32;;
37641;SDS011;23486;51.956;5.888;2023-07-09T02:27:34;12.10;;;6.95;;
37641;SDS011;23486;51.956;5.888;2023-07-09T02:30:00;10.80;;;7.15;;
37641;SDS011;23486;51.956;5.888;2023-07-09T02:32:27;9.90;;;7.13;;
37641;SDS011;23486;51.956;5.888;2023-07-09T02:34:54;10.60;;;6.53;;
37641;SDS011;23486;51.956;5.888;2023-07-09T02:37:21;9.48;;;6.30;;
37641;SDS011;23486;51.956;5.888;2023-07-09T02:39:48;12.30;;;7.15;;
37641;SDS011;23486;51.956;5.888;2023-07-09T02:42:15;8.80;;;7.20;;
37641;SDS011;23486;51.956;5.888;2023-07-09T02:44:43;9.38;;;6.65;;
37641;SDS011;23486;51.956;5.888;2023-07-09T02:47:10;10.50;;;6.38;;
37641;SDS011;23486;51.956;5.888;2023-07-09T02:49:37;9.48;;;6.70;;
37641;SDS011;23486;51.956;5.888;2023-07-09T02:52:03;11.50;;;6.72;;
37641;SDS011;23486;51.956;5.888;2023-07-09T02:54:29;8.32;;;6.20;;
37641;SDS011;23486;51.956;5.888;2023-07-09T02:56:55;10.57;;;7.35;;
37641;SDS011;23486;51.956;5.888;2023-07-09T02:59:21;9.05;;;6.32;;
37641;SDS011;23486;51.956;5.888;2023-07-09T03:01:47;9.18;;;6.38;;
37641;SDS011;23486;51.956;5.888;2023-07-09T03:04:14;10.43;;;7.68;;
37641;SDS011;23486;51.956;5.888;2023-07-09T03:06:40;10.93;;;6.70;;
37641;SDS011;23486;51.956;5.888;2023-07-09T03:09:06;9.32;;;6.80;;
37641;SDS011;23486;51.956;5.888;2023-07-09T03:11:32;8.10;;;6.75;;
37641;SDS011;23486;51.956;5.888;2023-07-09T03:13:59;8.75;;;6.43;;
37641;SDS011;23486;51.956;5.888;2023-07-09T03:16:26;10.93;;;6.75;;
37641;SDS011;23486;51.956;5.888;2023-07-09T03:18:53;10.07;;;7.47;;
37641;SDS011;23486;51.956;5.888;2023-07-09T03:21:20;10.18;;;7.07;;
37641;SDS011;23486;51.956;5.888;2023-07-09T03:23:49;8.77;;;5.82;;
37641;SDS011;23486;51.956;5.888;2023-07-09T03:26:15;10.15;;;7.07;;
37641;SDS011;23486;51.956;5.888;2023-07-09T03:28:41;11.45;;;7.35;;
37641;SDS011;23486;51.956;5.888;2023-07-09T03:31:07;8.43;;;6.47;;
37641;SDS011;23486;51.956;5.888;2023-07-09T03:33:33;10.95;;;6.75;;
37641;SDS011;23486;51.956;5.888;2023-07-09T03:35:58;9.55;;;7.05;;
37641;SDS011;23486;51.956;5.888;2023-07-09T03:38:24;9.68;;;6.75;;
37641;SDS011;23486;51.956;5.888;2023-07-09T03:40:51;8.68;;;6.40;;
37641;SDS011;23486;51.956;5.888;2023-07-09T03:43:20;8.30;;;6.03;;
37641;SDS011;23486;51.956;5.888;2023-07-09T03:45:46;9.50;;;6.80;;
37641;SDS011;23486;51.956;5.888;2023-07-09T03:48:13;8.23;;;5.93;;
37641;SDS011;23486;51.956;5.888;2023-07-09T03:50:39;9.45;;;6.97;;
37641;SDS011;23486;51.956;5.888;2023-07-09T03:53:06;8.88;;;6.35;;
37641;SDS011;23486;51.956;5.888;2023-07-09T03:55:32;10.55;;;6.47;;
37641;SDS011;23486;51.956;5.888;2023-07-09T03:57:57;9.82;;;6.53;;
37641;SDS011;23486;51.956;5.888;2023-07-09T04:00:29;8.60;;;6.55;;
37641;SDS011;23486;51.956;5.888;2023-07-09T04:02:55;9.23;;;6.95;;
37641;SDS011;23486;51.956;5.888;2023-07-09T04:05:22;8.13;;;6.30;;
37641;SDS011;23486;51.956;5.888;2023-07-09T04:07:48;9.38;;;6.70;;
37641;SDS011;23486;51.956;5.888;2023-07-09T04:10:14;11.23;;;8.25;;
37641;SDS011;23486;51.956;5.888;2023-07-09T04:12:39;12.27;;;7.15;;
37641;SDS011;23486;51.956;5.888;2023-07-09T04:15:05;9.40;;;7.10;;
37641;SDS011;23486;51.956;5.888;2023-07-09T04:17:31;11.27;;;6.97;;
37641;SDS011;23486;51.956;5.888;2023-07-09T04:19:57;10.75;;;7.45;;
37641;SDS011;23486;51.956;5.888;2023-07-09T04:22:23;11.60;;;8.73;;
37641;SDS011;23486;51.956;5.888;2023-07-09T04:24:49;12.50;;;8.20;;
37641;SDS011;23486;51.956;5.888;2023-07-09T04:27:15;10.55;;;7.65;;
37641;SDS011;23486;51.956;5.888;2023-07-09T04:29:41;10.63;;;7.00;;
37641;SDS011;23486;51.956;5.888;2023-07-09T04:32:16;12.02;;;7.90;;
37641;SDS011;23486;51.956;5.888;2023-07-09T04:34:41;10.73;;;7.30;;
37641;SDS011;23486;51.956;5.888;2023-07-09T04:37:10;12.00;;;8.10;;
37641;SDS011;23486;51.956;5.888;2023-07-09T04:39:41;9.82;;;7.70;;
37641;SDS011;23486;51.956;5.888;2023-07-09T04:42:09;10.90;;;8.15;;
37641;SDS011;23486;51.956;5.888;2023-07-09T04:44:37;10.65;;;7.75;;
37641;SDS011;23486;51.956;5.888;2023-07-09T04:47:02;14.43;;;8.40;;
37641;SDS011;23486;51.956;5.888;2023-07-09T04:49:28;11.70;;;8.45;;
37641;SDS011;23486;51.956;5.888;2023-07-09T04:51:54;10.95;;;8.02;;
37641;SDS011;23486;51.956;5.888;2023-07-09T04:54:21;10.10;;;8.15;;
37641;SDS011;23486;51.956;5.888;2023-07-09T04:56:47;10.52;;;8.30;;
37641;SDS011;23486;51.956;5.888;2023-07-09T04:59:13;9.70;;;7.88;;
37641;SDS011;23486;51.956;5.888;2023-07-09T05:01:40;13.02;;;9.07;;
37641;SDS011;23486;51.956;5.888;2023-07-09T05:04:06;13.18;;;8.48;;
37641;SDS011;23486;51.956;5.888;2023-07-09T05:06:32;15.93;;;8.68;;
37641;SDS011;23486;51.956;5.888;2023-07-09T05:08:58;13.80;;;9.00;;
37641;SDS011;23486;51.956;5.888;2023-07-09T05:11:24;10.32;;;8.07;;
37641;SDS011;23486;51.956;5.888;2023-07-09T05:13:49;12.25;;;8.88;;
37641;SDS011;23486;51.956;5.888;2023-07-09T05:16:15;12.75;;;8.35;;
37641;SDS011;23486;51.956;5.888;2023-07-09T05:18:42;12.00;;;8.20;;
37641;SDS011;23486;51.956;5.888;2023-07-09T05:21:07;13.05;;;8.82;;
37641;SDS011;23486;51.956;5.888;2023-07-09T05:23:33;13.80;;;8.43;;
37641;SDS011;23486;51.956;5.888;2023-07-09T05:25:59;11.35;;;8.50;;
37641;SDS011;23486;51.956;5.888;2023-07-09T05:28:27;11.68;;;8.38;;
37641;SDS011;23486;51.956;5.888;2023-07-09T05:30:53;12.20;;;8.27;;
37641;SDS011;23486;51.956;5.888;2023-07-09T05:33:19;11.18;;;7.82;;
37641;SDS011;23486;51.956;5.888;2023-07-09T05:35:45;12.07;;;8.13;;
37641;SDS011;23486;51.956;5.888;2023-07-09T05:38:13;10.95;;;7.72;;
37641;SDS011;23486;51.956;5.888;2023-07-09T05:40:40;12.05;;;8.25;;
37641;SDS011;23486;51.956;5.888;2023-07-09T05:43:06;16.13;;;9.10;;
37641;SDS011;23486;51.956;5.888;2023-07-09T05:45:32;11.73;;;8.55;;
37641;SDS011;23486;51.956;5.888;2023-07-09T05:48:01;10.63;;;7.65;;
37641;SDS011;23486;51.956;5.888;2023-07-09T05:50:27;12.10;;;8.63;;
37641;SDS011;23486;51.956;5.888;2023-07-09T05:52:53;11.57;;;8.23;;
37641;SDS011;23486;51.956;5.888;2023-07-09T05:55:19;12.73;;;8.23;;
37641;SDS011;23486;51.956;5.888;2023-07-09T05:57:45;11.90;;;9.23;;
37641;SDS011;23486;51.956;5.888;2023-07-09T06:00:11;11.10;;;7.72;;
37641;SDS011;23486;51.956;5.888;2023-07-09T06:02:37;11.70;;;8.18;;
37641;SDS011;23486;51.956;5.888;2023-07-09T06:05:03;13.38;;;9.95;;
37641;SDS011;23486;51.956;5.888;2023-07-09T06:07:29;12.80;;;8.45;;
37641;SDS011;23486;51.956;5.888;2023-07-09T06:09:55;14.38;;;9.13;;
37641;SDS011;23486;51.956;5.888;2023-07-09T06:12:20;13.10;;;8.93;;
37641;SDS011;23486;51.956;5.888;2023-07-09T06:14:46;12.57;;;9.85;;
37641;SDS011;23486;51.956;5.888;2023-07-09T06:17:12;11.05;;;7.97;;
37641;SDS011;23486;51.956;5.888;2023-07-09T06:19:38;10.77;;;8.00;;
37641;SDS011;23486;51.956;5.888;2023-07-09T06:22:04;10.50;;;8.35;;
37641;SDS011;23486;51.956;5.888;2023-07-09T06:24:29;12.93;;;9.35;;
37641;SDS011;23486;51.956;5.888;2023-07-09T06:26:55;14.45;;;9.07;;
37641;SDS011;23486;51.956;5.888;2023-07-09T06:29:24;12.38;;;8.27;;
37641;SDS011;23486;51.956;5.888;2023-07-09T06:31:50;12.73;;;8.90;;
37641;SDS011;23486;51.956;5.888;2023-07-09T06:34:15;11.70;;;7.80;;
37641;SDS011;23486;51.956;5.888;2023-07-09T06:36:41;8.90;;;7.32;;
37641;SDS011;23486;51.956;5.888;2023-07-09T06:39:07;10.98;;;7.90;;
37641;SDS011;23486;51.956;5.888;2023-07-09T06:41:32;7.97;;;6.85;;
37641;SDS011;23486;51.956;5.888;2023-07-09T06:44:03;11.40;;;7.28;;
37641;SDS011;23486;51.956;5.888;2023-07-09T06:46:30;11.85;;;8.63;;
37641;SDS011;23486;51.956;5.888;2023-07-09T06:48:56;10.73;;;8.20;;
37641;SDS011;23486;51.956;5.888;2023-07-09T06:51:22;12.77;;;8.35;;
37641;SDS011;23486;51.956;5.888;2023-07-09T06:53:47;11.45;;;7.90;;
37641;SDS011;23486;51.956;5.888;2023-07-09T06:56:15;10.68;;;7.72;;
37641;SDS011;23486;51.956;5.888;2023-07-09T06:58:41;11.25;;;7.50;;
37641;SDS011;23486;51.956;5.888;2023-07-09T07:01:07;11.88;;;7.65;;
37641;SDS011;23486;51.956;5.888;2023-07-09T07:03:36;13.20;;;8.43;;
37641;SDS011;23486;51.956;5.888;2023-07-09T07:06:02;9.93;;;7.97;;
37641;SDS011;23486;51.956;5.888;2023-07-09T07:08:28;11.43;;;8.00;;
37641;SDS011;23486;51.956;5.888;2023-07-09T07:10:55;11.82;;;7.50;;
37641;SDS011;23486;51.956;5.888;2023-07-09T07:15:56;9.73;;;6.47;;
37641;SDS011;23486;51.956;5.888;2023-07-09T07:18:22;10.35;;;7.97;;
37641;SDS011;23486;51.956;5.888;2023-07-09T07:21:08;10.68;;;7.25;;
37641;SDS011;23486;51.956;5.888;2023-07-09T07:23:34;11.77;;;6.85;;
37641;SDS011;23486;51.956;5.888;2023-07-09T07:26:00;8.05;;;6.28;;
37641;SDS011;23486;51.956;5.888;2023-07-09T07:28:25;10.15;;;6.60;;
37641;SDS011;23486;51.956;5.888;2023-07-09T07:30:57;8.00;;;6.63;;
37641;SDS011;23486;51.956;5.888;2023-07-09T07:33:27;10.00;;;6.43;;
37641;SDS011;23486;51.956;5.888;2023-07-09T07:35:52;10.02;;;7.10;;
37641;SDS011;23486;51.956;5.888;2023-07-09T07:38:18;9.10;;;6.05;;
37641;SDS011;23486;51.956;5.888;2023-07-09T07:40:44;11.80;;;6.88;;
37641;SDS011;23486;51.956;5.888;2023-07-09T07:43:10;8.48;;;6.22;;
37641;SDS011;23486;51.956;5.888;2023-07-09T07:45:35;9.00;;;6.75;;
37641;SDS011;23486;51.956;5.888;2023-07-09T07:48:05;9.05;;;5.68;;
37641;SDS011;23486;51.956;5.888;2023-07-09T07:50:31;7.72;;;5.53;;
37641;SDS011;23486;51.956;5.888;2023-07-09T07:52:56;8.32;;;5.25;;
37641;SDS011;23486;51.956;5.888;2023-07-09T07:55:22;9.35;;;5.68;;
37641;SDS011;23486;51.956;5.888;2023-07-09T07:57:47;10.88;;;5.72;;
37641;SDS011;23486;51.956;5.888;2023-07-09T08:00:13;8.60;;;5.15;;
37641;SDS011;23486;51.956;5.888;2023-07-09T08:02:39;8.75;;;5.28;;
37641;SDS011;23486;51.956;5.888;2023-07-09T08:05:05;11.88;;;6.75;;
37641;SDS011;23486;51.956;5.888;2023-07-09T08:07:31;8.00;;;6.28;;
37641;SDS011;23486;51.956;5.888;2023-07-09T08:09:57;7.63;;;5.40;;
37641;SDS011;23486;51.956;5.888;2023-07-09T08:12:22;10.27;;;6.43;;
37641;SDS011;23486;51.956;5.888;2023-07-09T08:14:48;8.27;;;5.38;;
37641;SDS011;23486;51.956;5.888;2023-07-09T08:17:15;7.00;;;4.80;;
37641;SDS011;23486;51.956;5.888;2023-07-09T08:19:47;8.63;;;5.63;;
37641;SDS011;23486;51.956;5.888;2023-07-09T08:22:14;6.97;;;4.88;;
37641;SDS011;23486;51.956;5.888;2023-07-09T08:24:41;7.60;;;5.25;;
37641;SDS011;23486;51.956;5.888;2023-07-09T08:27:07;8.63;;;4.95;;
37641;SDS011;23486;51.956;5.888;2023-07-09T08:29:33;8.05;;;5.28;;
37641;SDS011;23486;51.956;5.888;2023-07-09T08:31:58;7.88;;;5.50;;
37641;SDS011;23486;51.956;5.888;2023-07-09T08:34:24;6.60;;;4.70;;
37641;SDS011;23486;51.956;5.888;2023-07-09T08:36:49;6.95;;;5.10;;
37641;SDS011;23486;51.956;5.888;2023-07-09T08:39:21;7.80;;;5.38;;
37641;SDS011;23486;51.956;5.888;2023-07-09T08:50:14;7.13;;;4.70;;
37641;SDS011;23486;51.956;5.888;2023-07-09T08:52:42;8.38;;;4.32;;
37641;SDS011;23486;51.956;5.888;2023-07-09T08:55:14;9.63;;;5.18;;
37641;SDS011;23486;51.956;5.888;2023-07-09T08:57:49;7.22;;;4.65;;
37641;SDS011;23486;51.956;5.888;2023-07-09T09:00:24;7.90;;;4.70;;
37641;SDS011;23486;51.956;5.888;2023-07-09T09:02:58;7.75;;;4.25;;
37641;SDS011;23486;51.956;5.888;2023-07-09T09:05:28;7.38;;;5.15;;
37641;SDS011;23486;51.956;5.888;2023-07-09T09:08:02;5.70;;;4.50;;
37641;SDS011;23486;51.956;5.888;2023-07-09T09:10:46;9.98;;;5.88;;
37641;SDS011;23486;51.956;5.888;2023-07-09T09:13:15;7.55;;;4.97;;
37641;SDS011;23486;51.956;5.888;2023-07-09T09:15:43;7.05;;;4.47;;
37641;SDS011;23486;51.956;5.888;2023-07-09T09:20:58;10.13;;;5.22;;
37641;SDS011;23486;51.956;5.888;2023-07-09T09:23:41;7.35;;;4.28;;
37641;SDS011;23486;51.956;5.888;2023-07-09T09:26:16;7.05;;;4.75;;
37641;SDS011;23486;51.956;5.888;2023-07-09T09:28:59;7.25;;;4.60;;
37641;SDS011;23486;51.956;5.888;2023-07-09T09:31:28;6.88;;;4.30;;
37641;SDS011;23486;51.956;5.888;2023-07-09T09:33:55;6.85;;;4.18;;
37641;SDS011;23486;51.956;5.888;2023-07-09T09:36:22;8.18;;;4.13;;
37641;SDS011;23486;51.956;5.888;2023-07-09T09:38:49;5.40;;;3.92;;
37641;SDS011;23486;51.956;5.888;2023-07-09T09:41:22;7.25;;;4.07;;
37641;SDS011;23486;51.956;5.888;2023-07-09T09:43:51;5.40;;;3.90;;
37641;SDS011;23486;51.956;5.888;2023-07-09T09:46:19;7.10;;;4.28;;
37641;SDS011;23486;51.956;5.888;2023-07-09T09:48:47;8.68;;;4.38;;
37641;SDS011;23486;51.956;5.888;2023-07-09T09:51:15;6.70;;;4.38;;
37641;SDS011;23486;51.956;5.888;2023-07-09T09:53:49;4.93;;;3.50;;
37641;SDS011;23486;51.956;5.888;2023-07-09T09:56:18;8.43;;;4.03;;
37641;SDS011;23486;51.956;5.888;2023-07-09T09:58:52;6.93;;;3.93;;
37641;SDS011;23486;51.956;5.888;2023-07-09T10:01:19;5.85;;;3.58;;
37641;SDS011;23486;51.956;5.888;2023-07-09T10:03:50;5.68;;;3.05;;
37641;SDS011;23486;51.956;5.888;2023-07-09T10:06:21;5.80;;;3.40;;
37641;SDS011;23486;51.956;5.888;2023-07-09T10:08:57;5.15;;;3.70;;
37641;SDS011;23486;51.956;5.888;2023-07-09T10:11:46;6.28;;;4.18;;
37641;SDS011;23486;51.956;5.888;2023-07-09T10:14:22;4.93;;;3.25;;
37641;SDS011;23486;51.956;5.888;2023-07-09T10:16:58;5.07;;;3.63;;
37641;SDS011;23486;51.956;5.888;2023-07-09T10:25:46;5.50;;;3.17;;
37641;SDS011;23486;51.956;5.888;2023-07-09T10:31:20;6.28;;;3.60;;
37641;SDS011;23486;51.956;5.888;2023-07-09T10:36:48;5.80;;;3.40;;
37641;SDS011;23486;51.956;5.888;2023-07-09T10:39:37;4.80;;;3.22;;
37641;SDS011;23486;51.956;5.888;2023-07-09T10:42:09;4.45;;;2.67;;
37641;SDS011;23486;51.956;5.888;2023-07-09T10:44:43;5.40;;;3.67;;
37641;SDS011;23486;51.956;5.888;2023-07-09T10:49:49;4.80;;;2.80;;
37641;SDS011;23486;51.956;5.888;2023-07-09T10:52:39;4.95;;;2.97;;
37641;SDS011;23486;51.956;5.888;2023-07-09T10:56:08;5.38;;;3.35;;
37641;SDS011;23486;51.956;5.888;2023-07-09T10:58:26;4.93;;;3.20;;
37641;SDS011;23486;51.956;5.888;2023-07-09T11:01:12;5.70;;;3.20;;
37641;SDS011;23486;51.956;5.888;2023-07-09T11:03:42;5.25;;;3.03;;
37641;SDS011;23486;51.956;5.888;2023-07-09T11:06:55;5.53;;;3.13;;
37641;SDS011;23486;51.956;5.888;2023-07-09T11:09:11;5.70;;;3.03;;
37641;SDS011;23486;51.956;5.888;2023-07-09T11:11:48;4.47;;;2.72;;
37641;SDS011;23486;51.956;5.888;2023-07-09T11:14:25;4.88;;;2.67;;
37641;SDS011;23486;51.956;5.888;2023-07-09T11:16:58;5.85;;;3.08;;
37641;SDS011;23486;51.956;5.888;2023-07-09T11:19:25;6.60;;;3.45;;
37641;SDS011;23486;51.956;5.888;2023-07-09T11:24:51;4.55;;;2.58;;
37641;SDS011;23486;51.956;5.888;2023-07-09T11:27:50;6.55;;;2.95;;
37641;SDS011;23486;51.956;5.888;2023-07-09T11:30:24;5.22;;;2.67;;
37641;SDS011;23486;51.956;5.888;2023-07-09T11:32:52;5.22;;;2.42;;
37641;SDS011;23486;51.956;5.888;2023-07-09T11:35:25;3.88;;;2.20;;
37641;SDS011;23486;51.956;5.888;2023-07-09T11:37:53;3.77;;;2.00;;
37641;SDS011;23486;51.956;5.888;2023-07-09T11:40:19;6.80;;;2.80;;
37641;SDS011;23486;51.956;5.888;2023-07-09T11:42:47;3.83;;;2.40;;
37641;SDS011;23486;51.956;5.888;2023-07-09T11:45:20;3.65;;;2.35;;
37641;SDS011;23486;51.956;5.888;2023-07-09T11:48:13;5.20;;;3.13;;
37641;SDS011;23486;51.956;5.888;2023-07-09T11:50:50;4.45;;;2.65;;
37641;SDS011;23486;51.956;5.888;2023-07-09T11:55:59;6.80;;;2.35;;
37641;SDS011;23486;51.956;5.888;2023-07-09T11:58:25;5.05;;;2.85;;
37641;SDS011;23486;51.956;5.888;2023-07-09T12:00:51;4.50;;;2.42;;
37641;SDS011;23486;51.956;5.888;2023-07-09T12:03:32;5.43;;;2.83;;
37641;SDS011;23486;51.956;5.888;2023-07-09T12:06:05;5.68;;;2.95;;
37641;SDS011;23486;51.956;5.888;2023-07-09T12:08:39;4.50;;;2.80;;
37641;SDS011;23486;51.956;5.888;2023-07-09T12:11:06;5.93;;;2.35;;
37641;SDS011;23486;51.956;5.888;2023-07-09T12:13:42;4.22;;;2.92;;
37641;SDS011;23486;51.956;5.888;2023-07-09T12:16:18;3.55;;;2.30;;
37641;SDS011;23486;51.956;5.888;2023-07-09T12:18:53;3.90;;;1.92;;
37641;SDS011;23486;51.956;5.888;2023-07-09T12:21:19;4.53;;;1.98;;
37641;SDS011;23486;51.956;5.888;2023-07-09T12:23:46;3.72;;;2.03;;
37641;SDS011;23486;51.956;5.888;2023-07-09T12:26:14;4.60;;;2.28;;
37641;SDS011;23486;51.956;5.888;2023-07-09T12:28:42;4.32;;;2.00;;
37641;SDS011;23486;51.956;5.888;2023-07-09T12:31:14;4.05;;;2.00;;
37641;SDS011;23486;51.956;5.888;2023-07-09T12:33:49;3.97;;;2.40;;
37641;SDS011;23486;51.956;5.888;2023-07-09T12:36:18;4.57;;;2.63;;
37641;SDS011;23486;51.956;5.888;2023-07-09T12:39:05;5.38;;;2.78;;
37641;SDS011;23486;51.956;5.888;2023-07-09T12:41:43;5.15;;;2.92;;
37641;SDS011;23486;51.956;5.888;2023-07-09T12:44:19;5.15;;;2.03;;
37641;SDS011;23486;51.956;5.888;2023-07-09T12:46:47;4.55;;;2.30;;
37641;SDS011;23486;51.956;5.888;2023-07-09T12:49:23;3.15;;;1.70;;
37641;SDS011;23486;51.956;5.888;2023-07-09T12:51:51;5.63;;;2.20;;
37641;SDS011;23486;51.956;5.888;2023-07-09T12:54:19;4.50;;;2.67;;
37641;SDS011;23486;51.956;5.888;2023-07-09T12:56:52;3.63;;;1.75;;
37641;SDS011;23486;51.956;5.888;2023-07-09T13:02:06;5.85;;;1.92;;
37641;SDS011;23486;51.956;5.888;2023-07-09T13:04:46;4.22;;;2.38;;
37641;SDS011;23486;51.956;5.888;2023-07-09T13:07:34;3.65;;;1.98;;
37641;SDS011;23486;51.956;5.888;2023-07-09T13:10:11;3.33;;;2.00;;
37641;SDS011;23486;51.956;5.888;2023-07-09T13:12:48;3.70;;;2.30;;
37641;SDS011;23486;51.956;5.888;2023-07-09T13:15:23;4.70;;;2.67;;
37641;SDS011;23486;51.956;5.888;2023-07-09T13:17:48;4.35;;;2.45;;
37641;SDS011;23486;51.956;5.888;2023-07-09T13:20:14;4.57;;;2.47;;
37641;SDS011;23486;51.956;5.888;2023-07-09T13:22:41;5.05;;;2.90;;
37641;SDS011;23486;51.956;5.888;2023-07-09T13:25:08;6.13;;;3.33;;
37641;SDS011;23486;51.956;5.888;2023-07-09T13:27:34;4.53;;;2.67;;
37641;SDS011;23486;51.956;5.888;2023-07-09T13:30:03;5.65;;;3.05;;
37641;SDS011;23486;51.956;5.888;2023-07-09T13:32:29;6.78;;;3.03;;
37641;SDS011;23486;51.956;5.888;2023-07-09T13:34:55;6.80;;;3.42;;
37641;SDS011;23486;51.956;5.888;2023-07-09T13:37:21;4.90;;;3.10;;
37641;SDS011;23486;51.956;5.888;2023-07-09T13:39:46;5.35;;;2.85;;
37641;SDS011;23486;51.956;5.888;2023-07-09T13:42:13;6.93;;;2.95;;
37641;SDS011;23486;51.956;5.888;2023-07-09T13:44:42;4.85;;;2.47;;
37641;SDS011;23486;51.956;5.888;2023-07-09T13:47:18;7.60;;;4.03;;
37641;SDS011;23486;51.956;5.888;2023-07-09T13:49:44;4.10;;;2.72;;
37641;SDS011;23486;51.956;5.888;2023-07-09T13:52:18;6.10;;;3.78;;
37641;SDS011;23486;51.956;5.888;2023-07-09T13:54:46;4.78;;;3.33;;
37641;SDS011;23486;51.956;5.888;2023-07-09T13:57:16;7.05;;;4.55;;
37641;SDS011;23486;51.956;5.888;2023-07-09T13:59:43;7.22;;;3.75;;
37641;SDS011;23486;51.956;5.888;2023-07-09T14:02:25;9.50;;;4.40;;
37641;SDS011;23486;51.956;5.888;2023-07-09T14:04:59;9.10;;;5.30;;
37641;SDS011;23486;51.956;5.888;2023-07-09T14:07:27;8.38;;;5.03;;
37641;SDS011;23486;51.956;5.888;2023-07-09T14:10:00;7.63;;;6.13;;
37641;SDS011;23486;51.956;5.888;2023-07-09T14:12:29;9.60;;;6.38;;
37641;SDS011;23486;51.956;5.888;2023-07-09T14:14:58;9.02;;;6.50;;
37641;SDS011;23486;51.956;5.888;2023-07-09T14:17:25;9.05;;;6.45;;
37641;SDS011;23486;51.956;5.888;2023-07-09T14:19:51;9.35;;;5.70;;
37641;SDS011;23486;51.956;5.888;2023-07-09T14:22:21;9.45;;;6.53;;
37641;SDS011;23486;51.956;5.888;2023-07-09T14:24:52;9.93;;;6.25;;
37641;SDS011;23486;51.956;5.888;2023-07-09T14:27:18;8.18;;;5.70;;
37641;SDS011;23486;51.956;5.888;2023-07-09T14:29:44;7.95;;;5.53;;
37641;SDS011;23486;51.956;5.888;2023-07-09T14:32:30;13.13;;;6.63;;
37641;SDS011;23486;51.956;5.888;2023-07-09T14:34:59;8.75;;;5.50;;
37641;SDS011;23486;51.956;5.888;2023-07-09T14:37:25;5.55;;;4.75;;
37641;SDS011;23486;51.956;5.888;2023-07-09T14:39:51;6.75;;;4.63;;
37641;SDS011;23486;51.956;5.888;2023-07-09T14:42:17;9.05;;;6.43;;
37641;SDS011;23486;51.956;5.888;2023-07-09T14:44:44;11.95;;;6.75;;
37641;SDS011;23486;51.956;5.888;2023-07-09T14:47:17;7.00;;;6.03;;
37641;SDS011;23486;51.956;5.888;2023-07-09T14:49:44;7.80;;;6.03;;
37641;SDS011;23486;51.956;5.888;2023-07-09T14:52:15;6.40;;;4.75;;
37641;SDS011;23486;51.956;5.888;2023-07-09T14:54:45;7.88;;;4.70;;
37641;SDS011;23486;51.956;5.888;2023-07-09T14:59:46;6.47;;;2.83;;
37641;SDS011;23486;51.956;5.888;2023-07-09T15:04:59;7.20;;;2.42;;
37641;SDS011;23486;51.956;5.888;2023-07-09T15:07:29;4.80;;;1.88;;
37641;SDS011;23486;51.956;5.888;2023-07-09T15:09:55;8.57;;;2.15;;
37641;SDS011;23486;51.956;5.888;2023-07-09T15:12:30;8.00;;;1.88;;
37641;SDS011;23486;51.956;5.888;2023-07-09T15:15:03;5.15;;;3.05;;
37641;SDS011;23486;51.956;5.888;2023-07-09T15:17:40;8.13;;;3.22;;
37641;SDS011;23486;51.956;5.888;2023-07-09T15:20:07;7.47;;;2.83;;
37641;SDS011;23486;51.956;5.888;2023-07-09T15:22:39;6.07;;;2.65;;
37641;SDS011;23486;51.956;5.888;2023-07-09T15:25:08;8.00;;;3.30;;
37641;SDS011;23486;51.956;5.888;2023-07-09T15:27:41;8.90;;;2.95;;
37641;SDS011;23486;51.956;5.888;2023-07-09T15:30:17;5.82;;;2.42;;
37641;SDS011;23486;51.956;5.888;2023-07-09T15:32:48;6.72;;;3.10;;
37641;SDS011;23486;51.956;5.888;2023-07-09T15:35:15;10.32;;;2.92;;
37641;SDS011;23486;51.956;5.888;2023-07-09T15:37:42;6.93;;;2.55;;
37641;SDS011;23486;51.956;5.888;2023-07-09T15:40:28;6.47;;;2.40;;
37641;SDS011;23486;51.956;5.888;2023-07-09T15:43:02;9.05;;;2.97;;